Time;durP1;ratioP1;P1;durP2;ratioP2;P2;SDS_P1;SDS_P2;PMS_P1;PMS_P2;Temp;Humidity;BMP_temperature;BMP_pressure;BME280_temperature;BME280_humidity;BME280_pressure;Samples;Min_cycle;Max_cycle;Signal;HPM_P1;HPM_P2
2023/10/29 00:00:09;;;;;;;2.10;0.80;;;;;;;;;;5054368;28;20258;-83
2023/10/29 00:02:35;;;;;;;2.50;1.08;;;;;;;;;;5072150;28;20058;-83
2023/10/29 00:05:00;;;;;;;3.70;1.00;;;;;;;;;;5054393;28;20016;-83
2023/10/29 00:07:25;;;;;;;3.87;1.20;;;;;;;;;;5055081;28;20024;-83
2023/10/29 00:09:50;;;;;;;4.20;1.20;;;;;;;;;;5075816;28;20476;-83
2023/10/29 00:12:15;;;;;;;2.13;1.00;;;;;;;;;;5057707;28;20116;-84
2023/10/29 00:14:41;;;;;;;2.80;1.07;;;;;;;;;;5057593;28;20028;-83
2023/10/29 00:17:06;;;;;;;4.90;1.50;;;;;;;;;;5075501;28;20265;-84
2023/10/29 00:19:32;;;;;;;4.63;1.20;;;;;;;;;;5075352;28;20269;-83
2023/10/29 00:21:57;;;;;;;3.10;1.10;;;;;;;;;;5075385;28;20261;-84
2023/10/29 00:24:23;;;;;;;3.05;1.40;;;;;;;;;;5057536;28;20056;-84
2023/10/29 00:26:48;;;;;;;2.53;1.10;;;;;;;;;;5057546;28;20042;-83
2023/10/29 00:29:13;;;;;;;6.00;1.48;;;;;;;;;;5057184;28;20074;-84
2023/10/29 00:31:38;;;;;;;4.60;1.48;;;;;;;;;;5057320;28;20492;-83
2023/10/29 00:34:04;;;;;;;2.20;1.40;;;;;;;;;;5057449;28;20020;-84
2023/10/29 00:36:29;;;;;;;3.65;1.10;;;;;;;;;;5075198;28;20311;-83
2023/10/29 00:38:55;;;;;;;3.03;1.10;;;;;;;;;;5075295;28;20465;-83
2023/10/29 00:41:21;;;;;;;3.30;1.20;;;;;;;;;;5075222;28;20017;-84
2023/10/29 00:43:46;;;;;;;6.70;1.60;;;;;;;;;;5067021;28;20013;-84
2023/10/29 00:46:13;;;;;;;2.55;0.95;;;;;;;;;;5057156;28;20024;-84
2023/10/29 00:48:39;;;;;;;2.35;1.70;;;;;;;;;;5056962;28;20066;-84
2023/10/29 00:51:04;;;;;;;5.03;1.88;;;;;;;;;;5075042;28;20016;-84
2023/10/29 00:53:29;;;;;;;3.65;1.55;;;;;;;;;;5075092;28;20052;-84
2023/10/29 00:55:55;;;;;;;2.83;1.33;;;;;;;;;;5056801;28;20111;-83
2023/10/29 00:58:20;;;;;;;7.38;1.95;;;;;;;;;;5074745;28;20269;-83
2023/10/29 01:00:45;;;;;;;5.28;1.42;;;;;;;;;;5074857;28;20449;-83
2023/10/29 01:03:11;;;;;;;5.63;1.60;;;;;;;;;;5054841;28;20024;-83
2023/10/29 01:05:37;;;;;;;5.63;1.40;;;;;;;;;;5074789;28;20028;-83
2023/10/29 01:08:05;;;;;;;3.72;1.10;;;;;;;;;;5074831;28;20491;-84
2023/10/29 01:10:30;;;;;;;4.60;1.73;;;;;;;;;;5074458;28;20476;-83
2023/10/29 01:12:55;;;;;;;4.22;1.80;;;;;;;;;;5074624;28;20048;-83
2023/10/29 01:15:20;;;;;;;3.80;1.53;;;;;;;;;;5056536;28;20419;-83
2023/10/29 01:17:46;;;;;;;5.03;1.80;;;;;;;;;;5056544;28;20024;-83
2023/10/29 01:20:12;;;;;;;4.43;1.80;;;;;;;;;;5055606;28;20572;-84
2023/10/29 01:22:37;;;;;;;7.13;1.73;;;;;;;;;;5073951;28;20257;-84
2023/10/29 01:25:07;;;;;;;4.22;1.60;;;;;;;;;;5074489;28;20017;-84
2023/10/29 01:27:33;;;;;;;6.72;1.50;;;;;;;;;;5074319;28;20016;-84
2023/10/29 01:29:58;;;;;;;3.53;1.23;;;;;;;;;;5074280;28;20112;-84
2023/10/29 01:32:23;;;;;;;3.03;1.20;;;;;;;;;;5056129;28;20069;-84
2023/10/29 01:34:50;;;;;;;3.83;1.52;;;;;;;;;;5074005;28;20253;-83
2023/10/29 01:37:15;;;;;;;5.85;1.40;;;;;;;;;;5056186;28;20019;-83
2023/10/29 01:39:40;;;;;;;2.92;1.20;;;;;;;;;;5056051;28;20028;-83
2023/10/29 01:42:05;;;;;;;2.57;1.13;;;;;;;;;;5073969;28;20024;-83
2023/10/29 01:44:31;;;;;;;6.45;1.45;;;;;;;;;;5073863;28;20269;-83
2023/10/29 01:46:56;;;;;;;2.10;1.13;;;;;;;;;;5074121;28;20035;-83
2023/10/29 01:49:21;;;;;;;5.90;1.63;;;;;;;;;;5055919;28;20024;-83
2023/10/29 01:51:46;;;;;;;3.40;1.40;;;;;;;;;;5055630;28;20025;-83
2023/10/29 01:54:12;;;;;;;1.97;1.17;;;;;;;;;;5055856;28;20026;-84
2023/10/29 01:56:37;;;;;;;2.50;1.17;;;;;;;;;;5055775;28;20263;-84
2023/10/29 01:59:03;;;;;;;4.97;1.25;;;;;;;;;;5073603;28;20032;-84
2023/10/29 02:01:28;;;;;;;1.77;1.10;;;;;;;;;;5073505;28;20035;-83
2023/10/29 02:03:53;;;;;;;2.70;1.00;;;;;;;;;;5055708;28;20250;-83
2023/10/29 02:06:19;;;;;;;3.07;1.20;;;;;;;;;;5055490;28;20808;-83
2023/10/29 02:08:45;;;;;;;4.05;1.30;;;;;;;;;;5055471;28;20031;-84
2023/10/29 02:11:10;;;;;;;7.50;1.35;;;;;;;;;;5073723;28;20421;-84
2023/10/29 02:13:35;;;;;;;2.67;1.07;;;;;;;;;;5055411;28;20108;-84
2023/10/29 02:16:00;;;;;;;2.77;1.10;;;;;;;;;;5055423;28;20344;-84
2023/10/29 02:18:25;;;;;;;2.10;1.30;;;;;;;;;;5055385;28;20257;-84
2023/10/29 02:20:51;;;;;;;2.47;1.00;;;;;;;;;;5072979;28;20261;-84
2023/10/29 02:23:16;;;;;;;2.80;1.33;;;;;;;;;;5055252;28;20056;-83
2023/10/29 02:25:41;;;;;;;3.80;1.47;;;;;;;;;;5073155;28;20477;-83
2023/10/29 02:28:07;;;;;;;4.38;1.73;;;;;;;;;;5073256;28;20257;-84
2023/10/29 02:30:32;;;;;;;6.53;1.90;;;;;;;;;;5047054;28;20068;-83
2023/10/29 02:32:57;;;;;;;7.88;2.55;;;;;;;;;;5072635;28;20245;-84
2023/10/29 02:35:23;;;;;;;10.88;2.83;;;;;;;;;;5055146;28;20027;-83
2023/10/29 02:37:48;;;;;;;8.20;2.65;;;;;;;;;;5054999;28;20109;-84
2023/10/29 02:40:13;;;;;;;8.47;2.70;;;;;;;;;;5054954;28;20459;-83
2023/10/29 02:42:38;;;;;;;3.63;1.70;;;;;;;;;;5055045;28;20031;-83
2023/10/29 02:45:04;;;;;;;9.40;1.77;;;;;;;;;;5072844;28;20044;-83
2023/10/29 02:47:29;;;;;;;2.10;1.10;;;;;;;;;;5072793;28;20257;-84
2023/10/29 02:49:54;;;;;;;2.67;0.80;;;;;;;;;;5072871;28;20070;-83
2023/10/29 02:52:19;;;;;;;5.83;0.90;;;;;;;;;;5054842;28;20257;-84
2023/10/29 02:54:45;;;;;;;5.97;1.00;;;;;;;;;;5055084;28;20265;-83
2023/10/29 02:57:10;;;;;;;1.63;0.80;;;;;;;;;;5054730;28;20016;-83
2023/10/29 02:59:35;;;;;;;2.10;0.90;;;;;;;;;;5054843;28;20257;-83
2023/10/29 03:02:01;;;;;;;2.05;0.93;;;;;;;;;;5072774;28;20073;-83
2023/10/29 03:04:26;;;;;;;5.00;1.33;;;;;;;;;;5054709;28;20089;-84
2023/10/29 03:06:51;;;;;;;1.65;0.73;;;;;;;;;;5072921;28;20020;-84
2023/10/29 03:09:16;;;;;;;2.55;0.75;;;;;;;;;;5072558;28;20384;-84
2023/10/29 03:11:42;;;;;;;3.30;0.80;;;;;;;;;;5072978;28;20024;-84
2023/10/29 03:14:07;;;;;;;3.20;1.03;;;;;;;;;;5073066;28;20249;-84
2023/10/29 03:16:32;;;;;;;2.53;1.00;;;;;;;;;;5073106;28;20016;-84
2023/10/29 03:18:57;;;;;;;2.97;0.88;;;;;;;;;;5073010;28;20023;-84
2023/10/29 03:21:22;;;;;;;2.08;0.80;;;;;;;;;;5072392;28;20514;-84
2023/10/29 03:23:48;;;;;;;3.23;0.90;;;;;;;;;;5054614;28;20045;-84
2023/10/29 03:26:13;;;;;;;6.18;1.13;;;;;;;;;;5054626;28;20257;-84
2023/10/29 03:28:39;;;;;;;5.17;1.20;;;;;;;;;;5054495;28;20031;-84
2023/10/29 03:31:11;;;;;;;4.30;0.95;;;;;;;;;;5054603;28;20364;-83
2023/10/29 03:33:37;;;;;;;3.25;1.40;;;;;;;;;;5054522;28;20127;-83
2023/10/29 03:36:04;;;;;;;3.03;0.90;;;;;;;;;;5072417;28;20099;-83
2023/10/29 03:38:29;;;;;;;3.92;0.98;;;;;;;;;;5072515;28;20628;-83
2023/10/29 03:40:54;;;;;;;4.33;1.03;;;;;;;;;;5054374;28;20020;-83
2023/10/29 03:43:19;;;;;;;2.90;0.93;;;;;;;;;;5074614;28;20336;-84
2023/10/29 03:45:44;;;;;;;5.90;1.37;;;;;;;;;;5058350;28;20031;-84
2023/10/29 03:48:12;;;;;;;2.53;1.00;;;;;;;;;;5076023;28;20031;-84
2023/10/29 03:50:37;;;;;;;1.38;0.73;;;;;;;;;;5075985;28;20476;-84
2023/10/29 03:53:02;;;;;;;4.27;1.20;;;;;;;;;;5058001;28;20119;-83
2023/10/29 03:55:27;;;;;;;1.47;0.80;;;;;;;;;;5058176;28;20292;-84
2023/10/29 03:57:53;;;;;;;6.10;0.93;;;;;;;;;;5076141;28;20154;-84
2023/10/29 04:00:18;;;;;;;3.95;1.00;;;;;;;;;;5057942;28;20028;-83
2023/10/29 04:02:43;;;;;;;3.73;1.20;;;;;;;;;;5057944;28;20024;-84
2023/10/29 04:05:09;;;;;;;3.60;0.95;;;;;;;;;;5075940;28;20261;-83
2023/10/29 04:07:34;;;;;;;2.60;0.77;;;;;;;;;;5075721;28;20027;-83
2023/10/29 04:09:59;;;;;;;4.33;1.03;;;;;;;;;;5057860;28;20277;-84
2023/10/29 04:12:27;;;;;;;4.43;1.15;;;;;;;;;;5057881;28;20296;-83
2023/10/29 04:14:53;;;;;;;5.32;1.10;;;;;;;;;;5057645;28;20052;-83
2023/10/29 04:17:18;;;;;;;3.07;1.10;;;;;;;;;;5057524;28;20570;-84
2023/10/29 04:19:43;;;;;;;4.97;1.13;;;;;;;;;;5057794;28;20062;-83
2023/10/29 04:22:08;;;;;;;5.10;1.03;;;;;;;;;;5057668;28;20257;-83
2023/10/29 04:24:33;;;;;;;5.47;1.03;;;;;;;;;;5054062;28;20092;-83
2023/10/29 04:26:59;;;;;;;8.43;1.40;;;;;;;;;;5055545;28;20294;-84
2023/10/29 04:29:24;;;;;;;4.60;1.30;;;;;;;;;;5055325;28;20281;-84
2023/10/29 04:31:49;;;;;;;1.57;0.80;;;;;;;;;;5055468;28;20017;-84
2023/10/29 04:34:14;;;;;;;5.20;1.38;;;;;;;;;;5053956;28;20258;-84
2023/10/29 04:36:42;;;;;;;7.43;1.20;;;;;;;;;;5055177;28;20028;-84
2023/10/29 04:39:07;;;;;;;3.60;0.85;;;;;;;;;;5054880;28;20334;-84
2023/10/29 04:41:33;;;;;;;8.73;1.42;;;;;;;;;;5055360;28;20175;-84
2023/10/29 04:43:58;;;;;;;3.03;1.10;;;;;;;;;;5054949;28;20032;-83
2023/10/29 04:46:23;;;;;;;2.33;0.88;;;;;;;;;;5053787;28;20025;-83
2023/10/29 04:48:48;;;;;;;6.65;1.27;;;;;;;;;;5053774;28;20021;-83
2023/10/29 04:51:14;;;;;;;1.97;1.07;;;;;;;;;;5053609;28;20380;-84
2023/10/29 04:53:39;;;;;;;7.13;1.30;;;;;;;;;;5053782;28;20753;-84
2023/10/29 04:56:04;;;;;;;3.17;0.90;;;;;;;;;;5055265;28;20757;-83
2023/10/29 04:58:33;;;;;;;2.70;1.15;;;;;;;;;;5053516;28;20270;-84
2023/10/29 05:00:58;;;;;;;6.97;1.55;;;;;;;;;;5054879;28;20441;-83
2023/10/29 05:03:24;;;;;;;4.93;1.20;;;;;;;;;;5053716;28;20036;-83
2023/10/29 05:05:49;;;;;;;4.90;1.52;;;;;;;;;;5053511;28;20265;-83
2023/10/29 05:08:15;;;;;;;4.47;1.20;;;;;;;;;;5054753;28;20544;-84
2023/10/29 05:10:43;;;;;;;4.80;1.80;;;;;;;;;;5053246;28;20029;-84
2023/10/29 05:13:08;;;;;;;4.28;1.67;;;;;;;;;;5053819;28;20749;-84
2023/10/29 05:15:33;;;;;;;3.13;1.20;;;;;;;;;;5054943;28;20013;-84
2023/10/29 05:17:59;;;;;;;2.50;1.00;;;;;;;;;;5054522;28;20258;-84
2023/10/29 05:20:24;;;;;;;5.17;1.43;;;;;;;;;;5053157;28;20025;-83
2023/10/29 05:22:49;;;;;;;3.07;1.10;;;;;;;;;;5057680;28;20284;-83
2023/10/29 05:25:14;;;;;;;3.85;1.40;;;;;;;;;;5074385;28;20024;-83
2023/10/29 05:27:48;;;;;;;15.23;1.40;;;;;;;;;;5056267;28;20020;-83
2023/10/29 05:30:14;;;;;;;1.55;1.00;;;;;;;;;;5056248;28;20269;-83
2023/10/29 05:32:39;;;;;;;4.82;2.17;;;;;;;;;;5074166;28;20035;-83
2023/10/29 05:35:05;;;;;;;6.77;1.40;;;;;;;;;;5074144;28;20027;-84
2023/10/29 05:37:30;;;;;;;7.55;1.55;;;;;;;;;;5056194;28;20099;-84
2023/10/29 05:39:55;;;;;;;8.40;1.70;;;;;;;;;;5056014;28;20124;-83
2023/10/29 05:42:21;;;;;;;5.32;1.67;;;;;;;;;;5056123;28;20028;-83
2023/10/29 05:44:46;;;;;;;11.63;2.07;;;;;;;;;;5074094;28;20021;-84
2023/10/29 05:47:11;;;;;;;6.78;1.52;;;;;;;;;;5073822;28;20319;-83
2023/10/29 05:49:36;;;;;;;6.63;1.50;;;;;;;;;;5056013;28;20496;-84
2023/10/29 05:52:02;;;;;;;5.33;1.30;;;;;;;;;;5073950;28;20285;-83
2023/10/29 05:54:27;;;;;;;7.38;1.35;;;;;;;;;;5055846;28;20147;-83
2023/10/29 05:56:52;;;;;;;3.53;1.60;;;;;;;;;;5055892;28;20028;-83
2023/10/29 05:59:18;;;;;;;5.20;1.40;;;;;;;;;;5055596;28;20314;-83
2023/10/29 06:01:43;;;;;;;5.70;1.60;;;;;;;;;;5073730;28;20264;-83
2023/10/29 06:04:09;;;;;;;2.13;1.20;;;;;;;;;;5055627;28;20016;-84
2023/10/29 06:06:34;;;;;;;9.57;1.80;;;;;;;;;;5072996;28;20069;-83
2023/10/29 06:08:59;;;;;;;3.97;1.63;;;;;;;;;;5055563;28;20032;-83
2023/10/29 06:11:24;;;;;;;8.70;1.70;;;;;;;;;;5055578;28;20028;-83
2023/10/29 06:13:53;;;;;;;9.27;1.70;;;;;;;;;;5073284;28;20257;-83
2023/10/29 06:16:18;;;;;;;2.85;1.45;;;;;;;;;;5055519;28;20753;-83
2023/10/29 06:18:43;;;;;;;2.53;1.30;;;;;;;;;;5055379;28;20024;-84
2023/10/29 06:21:08;;;;;;;6.90;1.70;;;;;;;;;;5055173;28;20326;-84
2023/10/29 06:23:33;;;;;;;4.60;1.67;;;;;;;;;;5055154;28;20285;-84
2023/10/29 06:25:59;;;;;;;2.00;1.30;;;;;;;;;;5055279;28;20261;-84
2023/10/29 06:28:24;;;;;;;1.80;1.23;;;;;;;;;;5073245;28;20520;-84
2023/10/29 06:30:49;;;;;;;6.57;1.67;;;;;;;;;;5053600;28;20375;-85
2023/10/29 06:33:14;;;;;;;6.80;1.77;;;;;;;;;;5053984;28;20254;-84
2023/10/29 06:35:40;;;;;;;6.10;2.10;;;;;;;;;;5053903;28;20469;-84
2023/10/29 06:38:05;;;;;;;9.20;1.65;;;;;;;;;;5053970;28;20016;-84
2023/10/29 06:40:31;;;;;;;8.00;1.80;;;;;;;;;;5053907;28;20024;-84
2023/10/29 06:42:56;;;;;;;5.33;1.70;;;;;;;;;;5071830;28;20028;-85
2023/10/29 06:45:21;;;;;;;3.03;1.67;;;;;;;;;;5071960;28;20269;-84
2023/10/29 06:47:46;;;;;;;3.80;1.67;;;;;;;;;;5053721;28;20271;-84
2023/10/29 06:50:12;;;;;;;3.63;1.90;;;;;;;;;;5071894;28;20403;-84
2023/10/29 06:52:37;;;;;;;5.00;1.80;;;;;;;;;;5053858;28;20768;-85
2023/10/29 06:55:02;;;;;;;10.53;1.80;;;;;;;;;;5053943;28;20017;-84
2023/10/29 06:57:27;;;;;;;3.22;1.50;;;;;;;;;;5053181;28;20268;-84
2023/10/29 06:59:52;;;;;;;4.30;1.73;;;;;;;;;;5071845;28;20029;-85
2023/10/29 07:02:18;;;;;;;6.55;1.83;;;;;;;;;;5071651;28;20035;-85
2023/10/29 07:04:43;;;;;;;5.03;1.42;;;;;;;;;;5072157;28;20074;-84
2023/10/29 07:07:11;;;;;;;5.68;1.65;;;;;;;;;;5072787;28;20032;-83
2023/10/29 07:09:36;;;;;;;2.40;1.30;;;;;;;;;;5072905;28;20028;-84
2023/10/29 07:12:01;;;;;;;3.75;1.40;;;;;;;;;;5073151;28;20009;-84
2023/10/29 07:14:27;;;;;;;6.00;1.40;;;;;;;;;;5055133;28;20025;-84
2023/10/29 07:16:52;;;;;;;5.70;1.30;;;;;;;;;;5054943;28;20115;-85
2023/10/29 07:19:17;;;;;;;3.67;1.53;;;;;;;;;;5076574;28;20032;-85
2023/10/29 07:21:42;;;;;;;3.53;1.50;;;;;;;;;;5058683;28;20032;-84
2023/10/29 07:24:08;;;;;;;4.90;1.40;;;;;;;;;;5075341;28;20417;-85
2023/10/29 07:26:33;;;;;;;5.22;1.58;;;;;;;;;;5075482;28;20364;-84
2023/10/29 07:28:59;;;;;;;2.00;1.23;;;;;;;;;;5075229;28;20430;-84
2023/10/29 07:31:24;;;;;;;9.85;2.25;;;;;;;;;;5057130;28;20334;-84
2023/10/29 07:33:51;;;;;;;5.47;1.27;;;;;;;;;;5057261;28;20021;-85
2023/10/29 07:36:17;;;;;;;2.85;1.40;;;;;;;;;;5075416;28;20479;-85
2023/10/29 07:38:42;;;;;;;7.13;1.30;;;;;;;;;;5074942;28;20107;-85
2023/10/29 07:41:08;;;;;;;4.43;1.23;;;;;;;;;;5057615;28;20032;-85
2023/10/29 07:43:33;;;;;;;3.43;1.37;;;;;;;;;;5057356;28;20257;-85
2023/10/29 07:46:02;;;;;;;5.23;1.30;;;;;;;;;;5057346;28;20021;-84
2023/10/29 07:48:27;;;;;;;2.50;1.20;;;;;;;;;;5057342;28;20344;-84
2023/10/29 07:50:52;;;;;;;3.87;1.20;;;;;;;;;;5074942;28;20111;-84
2023/10/29 07:53:19;;;;;;;4.70;1.37;;;;;;;;;;5075208;28;20297;-85
2023/10/29 07:55:44;;;;;;;1.80;1.30;;;;;;;;;;5057219;28;20265;-85
2023/10/29 07:58:09;;;;;;;3.10;1.30;;;;;;;;;;5074445;28;20376;-85
2023/10/29 08:00:35;;;;;;;8.43;1.60;;;;;;;;;;5056814;28;20029;-85
2023/10/29 08:03:00;;;;;;;4.43;1.33;;;;;;;;;;5056641;28;20020;-85
2023/10/29 08:05:26;;;;;;;6.15;1.65;;;;;;;;;;5055424;28;20468;-84
2023/10/29 08:07:51;;;;;;;6.88;1.83;;;;;;;;;;5073938;28;20024;-85
2023/10/29 08:10:16;;;;;;;7.93;1.40;;;;;;;;;;5074524;28;20028;-85
2023/10/29 08:12:42;;;;;;;2.75;1.20;;;;;;;;;;5074589;28;20024;-85
2023/10/29 08:15:07;;;;;;;4.63;1.30;;;;;;;;;;5056242;28;20016;-85
2023/10/29 08:17:32;;;;;;;6.43;1.52;;;;;;;;;;5056494;28;20756;-85
2023/10/29 08:19:58;;;;;;;10.50;1.38;;;;;;;;;;5056466;28;20396;-85
2023/10/29 08:22:23;;;;;;;8.27;1.30;;;;;;;;;;5056528;28;20082;-84
2023/10/29 08:24:50;;;;;;;5.22;1.20;;;;;;;;;;5035265;28;1152194;-84
2023/10/29 08:27:15;;;;;;;3.92;1.17;;;;;;;;;;5075358;28;20499;-84
2023/10/29 08:29:43;;;;;;;4.20;1.30;;;;;;;;;;5075028;28;20032;-85
2023/10/29 08:32:08;;;;;;;4.30;1.55;;;;;;;;;;5075438;28;20047;-85
2023/10/29 08:34:33;;;;;;;2.05;1.20;;;;;;;;;;5075177;28;20021;-85
2023/10/29 08:36:59;;;;;;;3.10;1.40;;;;;;;;;;5075353;28;20025;-85
2023/10/29 08:39:24;;;;;;;2.97;1.35;;;;;;;;;;5057230;28;20112;-85
2023/10/29 08:41:49;;;;;;;5.68;1.85;;;;;;;;;;5057207;28;20032;-85
2023/10/29 08:44:15;;;;;;;3.33;1.20;;;;;;;;;;5075310;28;20115;-85
2023/10/29 08:46:41;;;;;;;2.78;1.23;;;;;;;;;;5057094;28;20020;-85
2023/10/29 08:49:06;;;;;;;7.97;1.63;;;;;;;;;;5075069;28;20534;-85
2023/10/29 08:51:31;;;;;;;3.22;1.40;;;;;;;;;;5057149;28;20025;-85
2023/10/29 08:53:57;;;;;;;3.17;1.10;;;;;;;;;;5056579;28;20384;-84
2023/10/29 08:56:22;;;;;;;4.80;1.45;;;;;;;;;;5056670;28;20779;-84
2023/10/29 08:58:47;;;;;;;6.22;1.48;;;;;;;;;;5056827;28;20082;-85
2023/10/29 09:01:13;;;;;;;5.07;1.37;;;;;;;;;;5075053;28;20029;-85
2023/10/29 09:03:38;;;;;;;4.07;1.52;;;;;;;;;;5056883;28;20097;-84
2023/10/29 09:06:04;;;;;;;3.93;1.30;;;;;;;;;;5074713;28;20020;-85
2023/10/29 09:08:33;;;;;;;4.65;1.42;;;;;;;;;;5057220;28;20284;-85
2023/10/29 09:10:58;;;;;;;5.45;1.33;;;;;;;;;;5057056;28;20033;-85
2023/10/29 09:13:24;;;;;;;5.28;1.50;;;;;;;;;;5056515;28;20100;-85
2023/10/29 09:15:49;;;;;;;3.75;1.45;;;;;;;;;;5056766;28;20048;-85
2023/10/29 09:18:14;;;;;;;4.07;1.33;;;;;;;;;;5056597;28;20024;-85
2023/10/29 09:20:40;;;;;;;3.33;1.60;;;;;;;;;;5074583;28;20016;-84
2023/10/29 09:23:05;;;;;;;3.38;1.27;;;;;;;;;;5074230;28;20293;-85
2023/10/29 09:25:30;;;;;;;1.75;0.75;;;;;;;;;;5074471;28;20069;-85
2023/10/29 09:27:55;;;;;;;4.87;1.17;;;;;;;;;;5056507;28;20020;-85
2023/10/29 09:30:21;;;;;;;2.03;1.00;;;;;;;;;;5074009;28;20380;-85
2023/10/29 09:32:46;;;;;;;1.80;0.98;;;;;;;;;;5074295;28;20098;-84
2023/10/29 09:35:12;;;;;;;3.03;0.93;;;;;;;;;;5056192;28;20388;-84
2023/10/29 09:37:37;;;;;;;2.42;0.90;;;;;;;;;;5073972;28;20249;-84
2023/10/29 09:40:04;;;;;;;1.97;0.83;;;;;;;;;;5055483;28;20028;-84
2023/10/29 09:42:31;;;;;;;1.30;0.73;;;;;;;;;;5074237;28;20400;-85
2023/10/29 09:44:57;;;;;;;1.30;0.70;;;;;;;;;;5064378;28;20020;-85
2023/10/29 09:47:25;;;;;;;1.08;0.73;;;;;;;;;;5073971;28;20031;-85
2023/10/29 09:49:51;;;;;;;1.50;0.50;;;;;;;;;;5073649;28;20034;-85
2023/10/29 09:52:17;;;;;;;1.20;0.65;;;;;;;;;;5056012;28;20017;-84
2023/10/29 09:54:45;;;;;;;1.50;0.57;;;;;;;;;;5073544;28;20055;-84
2023/10/29 09:57:11;;;;;;;1.92;0.60;;;;;;;;;;5062590;28;20100;-84
2023/10/29 09:59:36;;;;;;;1.63;0.60;;;;;;;;;;5079079;28;20115;-85
2023/10/29 10:02:01;;;;;;;1.15;0.35;;;;;;;;;;5059392;28;20024;-85
2023/10/29 10:04:27;;;;;;;0.63;0.50;;;;;;;;;;5064929;28;20051;-84
2023/10/29 10:06:53;;;;;;;1.05;0.60;;;;;;;;;;5068983;28;20503;-85
2023/10/29 10:09:18;;;;;;;0.32;0.32;;;;;;;;;;5071962;28;20158;-85
2023/10/29 10:11:43;;;;;;;1.37;0.50;;;;;;;;;;5071383;28;20047;-85
2023/10/29 10:14:24;;;;;;;2.50;0.80;;;;;;;;;;5071986;28;20245;-85
2023/10/29 10:17:05;;;;;;;1.08;0.60;;;;;;;;;;5073324;28;20250;-84
2023/10/29 10:19:31;;;;;;;1.65;0.80;;;;;;;;;;5065052;28;20052;-85
2023/10/29 10:21:56;;;;;;;5.60;1.00;;;;;;;;;;5055211;28;20479;-85
2023/10/29 10:24:34;;;;;;;4.07;0.60;;;;;;;;;;5073098;28;20284;-84
2023/10/29 10:27:00;;;;;;;1.85;0.85;;;;;;;;;;5051307;28;20036;-84
2023/10/29 10:29:29;;;;;;;1.50;0.80;;;;;;;;;;5051886;28;20021;-85
2023/10/29 10:32:03;;;;;;;1.45;0.60;;;;;;;;;;5035259;28;20028;-85
2023/10/29 10:34:30;;;;;;;2.28;0.85;;;;;;;;;;5068966;28;20083;-85
2023/10/29 10:37:02;;;;;;;1.73;0.90;;;;;;;;;;5073064;28;20487;-85
2023/10/29 10:39:28;;;;;;;0.68;0.65;;;;;;;;;;5041896;28;20025;-85
2023/10/29 10:41:55;;;;;;;1.48;0.80;;;;;;;;;;5069495;28;20476;-85
2023/10/29 10:44:21;;;;;;;1.63;0.93;;;;;;;;;;5066354;28;20035;-85
2023/10/29 10:46:50;;;;;;;1.90;1.00;;;;;;;;;;5054224;28;20027;-85
2023/10/29 10:49:16;;;;;;;4.05;1.70;;;;;;;;;;5072263;28;20027;-85
2023/10/29 10:51:42;;;;;;;4.18;1.20;;;;;;;;;;5053920;28;20024;-85
2023/10/29 10:54:07;;;;;;;4.43;2.03;;;;;;;;;;5066773;28;20024;-84
2023/10/29 10:56:36;;;;;;;9.07;1.45;;;;;;;;;;5052283;28;20029;-84
2023/10/29 10:59:03;;;;;;;8.00;2.47;;;;;;;;;;5068849;28;20020;-84
2023/10/29 11:01:29;;;;;;;19.13;10.10;;;;;;;;;;5054772;28;20021;-85
2023/10/29 11:03:56;;;;;;;11.38;4.32;;;;;;;;;;5054689;28;20032;-85
2023/10/29 11:06:22;;;;;;;7.90;2.90;;;;;;;;;;5054798;28;20024;-85
2023/10/29 11:08:47;;;;;;;7.07;2.75;;;;;;;;;;5072681;28;20013;-85
2023/10/29 11:11:12;;;;;;;6.05;2.67;;;;;;;;;;5055331;28;20020;-84
2023/10/29 11:13:38;;;;;;;6.65;2.10;;;;;;;;;;5072031;28;20033;-85
2023/10/29 11:16:07;;;;;;;7.70;2.85;;;;;;;;;;5062204;28;20013;-85
2023/10/29 11:18:32;;;;;;;7.30;2.83;;;;;;;;;;5054185;28;20020;-84
2023/10/29 11:20:59;;;;;;;9.27;2.22;;;;;;;;;;5071338;28;20038;-85
2023/10/29 11:23:29;;;;;;;7.25;2.33;;;;;;;;;;5050400;28;20143;-85
2023/10/29 11:26:12;;;;;;;5.10;1.90;;;;;;;;;;5050437;28;20029;-85
2023/10/29 11:28:42;;;;;;;6.53;1.80;;;;;;;;;;5043626;28;20024;-86
2023/10/29 11:31:20;;;;;;;6.28;1.63;;;;;;;;;;5050699;28;20028;-84
2023/10/29 11:33:54;;;;;;;6.07;1.70;;;;;;;;;;5052023;28;20016;-84
2023/10/29 11:36:35;;;;;;;4.43;1.63;;;;;;;;;;5050499;28;20111;-85
2023/10/29 11:39:15;;;;;;;2.40;1.50;;;;;;;;;;5061393;28;20052;-84
2023/10/29 11:41:41;;;;;;;6.55;1.50;;;;;;;;;;5049849;28;20028;-85
2023/10/29 11:44:25;;;;;;;3.08;1.60;;;;;;;;;;5050680;28;20012;-85
2023/10/29 11:47:03;;;;;;;2.53;1.38;;;;;;;;;;5050770;28;20024;-85
2023/10/29 11:49:29;;;;;;;6.03;1.60;;;;;;;;;;5051742;28;20032;-85
2023/10/29 11:52:01;;;;;;;6.60;1.42;;;;;;;;;;5051702;28;20013;-85
2023/10/29 11:54:27;;;;;;;8.73;1.50;;;;;;;;;;5050790;28;20025;-84
2023/10/29 11:56:52;;;;;;;3.53;1.50;;;;;;;;;;5049955;28;20386;-83
2023/10/29 11:59:17;;;;;;;3.80;1.60;;;;;;;;;;5050537;28;20048;-84
2023/10/29 12:01:42;;;;;;;6.13;1.73;;;;;;;;;;5051950;28;20017;-83
2023/10/29 12:04:09;;;;;;;4.03;1.55;;;;;;;;;;5052126;28;20262;-85
2023/10/29 12:06:44;;;;;;;4.78;1.55;;;;;;;;;;5055623;28;20013;-85
2023/10/29 12:09:19;;;;;;;4.85;1.92;;;;;;;;;;5055316;28;20369;-85
2023/10/29 12:11:45;;;;;;;3.80;1.67;;;;;;;;;;5056472;28;20017;-84
2023/10/29 12:14:11;;;;;;;4.07;1.65;;;;;;;;;;5053948;28;20023;-84
2023/10/29 12:16:36;;;;;;;4.75;1.67;;;;;;;;;;5054127;28;20079;-84
2023/10/29 12:19:04;;;;;;;3.03;1.50;;;;;;;;;;5053976;28;20084;-84
2023/10/29 12:21:30;;;;;;;4.30;1.73;;;;;;;;;;5054814;28;20024;-85
2023/10/29 12:23:58;;;;;;;6.87;2.20;;;;;;;;;;5054056;28;20056;-84
2023/10/29 12:26:25;;;;;;;5.10;1.60;;;;;;;;;;5053503;28;20297;-85
2023/10/29 12:28:51;;;;;;;7.95;1.92;;;;;;;;;;5055100;28;20047;-84
2023/10/29 12:31:26;;;;;;;4.57;1.52;;;;;;;;;;5053494;28;20477;-84
2023/10/29 12:33:58;;;;;;;3.95;1.48;;;;;;;;;;5053807;28;20111;-84
2023/10/29 12:36:24;;;;;;;3.03;1.30;;;;;;;;;;5054784;28;20017;-85
2023/10/29 12:38:50;;;;;;;3.40;1.77;;;;;;;;;;5053669;28;20496;-85
2023/10/29 12:41:15;;;;;;;5.60;2.05;;;;;;;;;;5057484;28;20103;-85
2023/10/29 12:43:41;;;;;;;4.55;1.65;;;;;;;;;;5056596;28;20028;-89
2023/10/29 12:46:17;;;;;;;4.32;1.88;;;;;;;;;;5053794;28;20032;-90
2023/10/29 12:48:56;;;;;;;4.40;1.40;;;;;;;;;;5055148;28;20166;-89
2023/10/29 12:51:29;;;;;;;4.22;1.40;;;;;;;;;;5056306;28;20412;-87
2023/10/29 12:54:30;;;;;;;6.55;1.40;;;;;;;;;;5053305;28;20021;-87
2023/10/29 12:56:58;;;;;;;8.27;1.48;;;;;;;;;;4993588;28;20029;-90
2023/10/29 12:59:27;;;;;;;6.40;1.50;;;;;;;;;;5039918;28;20394;-89
2023/10/29 13:01:54;;;;;;;3.85;1.50;;;;;;;;;;5055598;28;20389;-90
2023/10/29 13:04:20;;;;;;;10.43;1.83;;;;;;;;;;5054397;28;20481;-88
2023/10/29 13:06:45;;;;;;;3.13;1.35;;;;;;;;;;5054021;28;20025;-89
2023/10/29 13:09:12;;;;;;;10.87;1.47;;;;;;;;;;5053516;28;20031;-90
2023/10/29 13:11:38;;;;;;;2.80;1.13;;;;;;;;;;5056248;28;20631;-90
2023/10/29 13:14:03;;;;;;;6.35;1.15;;;;;;;;;;5055113;28;20009;-89
2023/10/29 13:16:28;;;;;;;5.50;1.05;;;;;;;;;;5053296;28;20488;-86
2023/10/29 13:18:54;;;;;;;4.83;1.03;;;;;;;;;;5053990;28;20108;-87
2023/10/29 13:21:19;;;;;;;5.25;1.15;;;;;;;;;;5052825;28;20345;-88
2023/10/29 13:23:45;;;;;;;3.05;1.20;;;;;;;;;;5051177;28;20068;-88
2023/10/29 13:26:10;;;;;;;8.13;1.17;;;;;;;;;;5052642;28;20494;-89
2023/10/29 13:28:36;;;;;;;2.70;0.95;;;;;;;;;;5053675;28;20048;-87
2023/10/29 13:31:02;;;;;;;5.38;1.58;;;;;;;;;;5054096;28;20024;-89
2023/10/29 13:33:28;;;;;;;4.35;1.20;;;;;;;;;;5052634;28;20367;-88
2023/10/29 13:35:53;;;;;;;6.57;0.80;;;;;;;;;;5053097;28;20013;-88
2023/10/29 13:38:18;;;;;;;2.23;0.87;;;;;;;;;;5053006;28;20037;-89
2023/10/29 13:40:44;;;;;;;1.27;0.52;;;;;;;;;;5052514;28;20025;-88
2023/10/29 13:43:09;;;;;;;1.63;0.60;;;;;;;;;;5072937;28;20388;-87
2023/10/29 13:45:34;;;;;;;2.60;0.60;;;;;;;;;;5072920;28;20031;-87
2023/10/29 13:47:59;;;;;;;2.77;0.60;;;;;;;;;;5072722;28;20346;-87
2023/10/29 13:50:25;;;;;;;0.35;0.30;;;;;;;;;;5053954;28;20273;-88
2023/10/29 13:52:50;;;;;;;0.30;0.30;;;;;;;;;;5052749;28;20024;-87
2023/10/29 13:55:15;;;;;;;0.40;0.30;;;;;;;;;;5053288;28;20257;-87
2023/10/29 13:57:40;;;;;;;0.20;0.20;;;;;;;;;;5053818;28;20254;-87
2023/10/29 14:00:08;;;;;;;0.30;0.30;;;;;;;;;;5053627;28;20029;-87
2023/10/29 14:02:34;;;;;;;1.25;0.40;;;;;;;;;;5052533;28;20021;-87
2023/10/29 14:04:59;;;;;;;0.98;0.30;;;;;;;;;;5053614;28;20029;-87
2023/10/29 14:07:26;;;;;;;0.20;0.20;;;;;;;;;;5052429;28;20056;-87
2023/10/29 14:09:51;;;;;;;0.25;0.20;;;;;;;;;;5051780;28;20269;-87
2023/10/29 14:12:16;;;;;;;0.50;0.20;;;;;;;;;;5053402;28;20028;-87
2023/10/29 14:14:42;;;;;;;0.60;0.10;;;;;;;;;;5052207;28;20254;-87
2023/10/29 14:17:07;;;;;;;0.47;0.30;;;;;;;;;;5053449;28;20013;-87
2023/10/29 14:19:33;;;;;;;0.20;0.20;;;;;;;;;;5052217;28;20254;-85
2023/10/29 14:21:58;;;;;;;2.25;0.45;;;;;;;;;;5052095;28;20500;-84
2023/10/29 14:24:25;;;;;;;1.60;0.30;;;;;;;;;;5068758;28;20122;-85
2023/10/29 14:26:52;;;;;;;3.88;0.82;;;;;;;;;;5072925;28;20017;-85
2023/10/29 14:29:17;;;;;;;0.30;0.10;;;;;;;;;;5071808;28;20028;-85
2023/10/29 14:31:42;;;;;;;4.73;0.40;;;;;;;;;;5071937;28;20116;-85
2023/10/29 14:34:08;;;;;;;0.20;0.20;;;;;;;;;;5071677;28;20328;-85
2023/10/29 14:36:34;;;;;;;0.20;0.20;;;;;;;;;;5072726;28;20017;-85